GLD1620 SKCG-SEGU
Flight info
| Callsign | GLD1620 |
|---|---|
| Flight time | 2h 1m |
| Altitude | 38000 |
| Route | CTG2D CTG ANRON UQ102 PUKAM ENSOL MIDEX UW1 DAKAB STAR2 |
| Aircraft | A20N/M-SDE2E3FGHIRWXY/LB1 |
Departure
| Time | 2026-04-25 22:23 |
|---|---|
| Airport | Rafael Nuñez International Airport (SKCG) |
Arrival
| Time | 2026-04-26 00:25 |
|---|---|
| Airport | José Joaquín de Olmedo International Airport (SEGU) |
| Time | Latitude | Longitude | Altitude | Speed | Heading |
|---|---|---|---|---|---|
| 2026-04-25 22:16 | 10.44559 | -75.51487 | 14 ft | 0 kts | 201° |
| 2026-04-25 22:19 | 10.44548 | -75.51483 | 15 ft | 2 kts | 130° |
| 2026-04-25 22:20 | 10.44553 | -75.51413 | 13 ft | 14 kts | 82° |
| 2026-04-25 22:20 | 10.44536 | -75.51301 | 13 ft | 15 kts | 129° |
| 2026-04-25 22:20 | 10.44438 | -75.51279 | 13 ft | 17 kts | 174° |
| 2026-04-25 22:20 | 10.44308 | -75.51293 | 10 ft | 22 kts | 196° |
| 2026-04-25 22:21 | 10.44143 | -75.51301 | 6 ft | 26 kts | 181° |
| 2026-04-25 22:21 | 10.43948 | -75.51309 | 9 ft | 29 kts | 183° |
| 2026-04-25 22:21 | 10.43737 | -75.51327 | 9 ft | 32 kts | 186° |
| 2026-04-25 22:21 | 10.43511 | -75.51326 | 14 ft | 32 kts | 178° |
| 2026-04-25 22:22 | 10.43282 | -75.51331 | 18 ft | 34 kts | 182° |
| 2026-04-25 22:22 | 10.43154 | -75.51248 | 16 ft | 22 kts | 148° |
| 2026-04-25 22:22 | 10.43066 | -75.51305 | 16 ft | 16 kts | 286° |
| 2026-04-25 22:22 | 10.43175 | -75.51334 | 15 ft | 40 kts | 359° |
| 2026-04-25 22:23 | 10.43779 | -75.51311 | 9 ft | 131 kts | 2° |
| 2026-04-25 22:23 | 10.44865 | -75.51264 | 406 ft | 168 kts | 1° |
| 2026-04-25 22:23 | 10.45673 | -75.51213 | 759 ft | 186 kts | 0° |
| 2026-04-25 22:23 | 10.47561 | -75.51115 | 1480 ft | 201 kts | 2° |
| 2026-04-25 22:24 | 10.48480 | -75.51049 | 1789 ft | 208 kts | 3° |
| 2026-04-25 22:24 | 10.49834 | -75.50944 | 2249 ft | 237 kts | 4° |
| 2026-04-25 22:24 | 10.52181 | -75.50808 | 3226 ft | 266 kts | 0° |
| 2026-04-25 22:24 | 10.54036 | -75.50901 | 4574 ft | 268 kts | 347° |
| 2026-04-25 22:25 | 10.55189 | -75.51315 | 5251 ft | 265 kts | 332° |
| 2026-04-25 22:25 | 10.56622 | -75.52564 | 5831 ft | 277 kts | 302° |
| 2026-04-25 22:25 | 10.57259 | -75.54357 | 7127 ft | 273 kts | 276° |
| 2026-04-25 22:25 | 10.57055 | -75.56275 | 8236 ft | 279 kts | 250° |
| 2026-04-25 22:26 | 10.56007 | -75.57945 | 9354 ft | 285 kts | 224° |
| 2026-04-25 22:26 | 10.54337 | -75.59068 | 10371 ft | 294 kts | 207° |
| 2026-04-25 22:26 | 10.52400 | -75.59941 | 10914 ft | 319 kts | 203° |
| 2026-04-25 22:26 | 10.50278 | -75.60779 | 11370 ft | 342 kts | 200° |
| 2026-04-25 22:27 | 10.47872 | -75.61293 | 12204 ft | 352 kts | 184° |
| 2026-04-25 22:27 | 10.45417 | -75.61150 | 13163 ft | 359 kts | 171° |
| 2026-04-25 22:27 | 10.42990 | -75.60511 | 14056 ft | 365 kts | 162° |
| 2026-04-25 22:27 | 10.40585 | -75.59577 | 14895 ft | 371 kts | 158° |
| 2026-04-25 22:28 | 10.38219 | -75.58526 | 15717 ft | 376 kts | 156° |
| 2026-04-25 22:28 | 10.35815 | -75.57417 | 16538 ft | 381 kts | 156° |
| 2026-04-25 22:28 | 10.33427 | -75.56314 | 17319 ft | 386 kts | 156° |
| 2026-04-25 22:28 | 10.30961 | -75.55185 | 18109 ft | 391 kts | 156° |
| 2026-04-25 22:29 | 10.28804 | -75.54204 | 18686 ft | 394 kts | 156° |
| 2026-04-25 22:29 | 10.26284 | -75.53063 | 19351 ft | 399 kts | 156° |
| 2026-04-25 22:29 | 10.23699 | -75.51994 | 20012 ft | 403 kts | 165° |
| 2026-04-25 22:30 | 10.18125 | -75.51912 | 21302 ft | 408 kts | 196° |
| 2026-04-25 22:30 | 10.15475 | -75.52957 | 21934 ft | 411 kts | 206° |
| 2026-04-25 22:30 | 10.12901 | -75.54267 | 22546 ft | 416 kts | 208° |
| 2026-04-25 22:30 | 10.11196 | -75.55166 | 22960 ft | 419 kts | 208° |
| 2026-04-25 22:31 | 10.07699 | -75.56979 | 23746 ft | 424 kts | 207° |
| 2026-04-25 22:31 | 10.05045 | -75.58314 | 24351 ft | 426 kts | 207° |
| 2026-04-25 22:31 | 10.02417 | -75.59614 | 24912 ft | 428 kts | 206° |
| 2026-04-25 22:31 | 9.99693 | -75.60949 | 25461 ft | 430 kts | 206° |
| 2026-04-25 22:32 | 9.97020 | -75.62254 | 25997 ft | 433 kts | 206° |
| 2026-04-25 22:32 | 9.94316 | -75.63574 | 26526 ft | 435 kts | 206° |
| 2026-04-25 22:32 | 9.91559 | -75.64919 | 27054 ft | 438 kts | 206° |
| 2026-04-25 22:32 | 9.88809 | -75.66262 | 27552 ft | 440 kts | 206° |
| 2026-04-25 22:33 | 9.86043 | -75.67613 | 28042 ft | 443 kts | 206° |
| 2026-04-25 22:33 | 9.83259 | -75.68972 | 28530 ft | 445 kts | 206° |
| 2026-04-25 22:33 | 9.80464 | -75.70336 | 28990 ft | 448 kts | 206° |
| 2026-04-25 22:33 | 9.77645 | -75.71712 | 29463 ft | 451 kts | 206° |
| 2026-04-25 22:34 | 9.74814 | -75.73093 | 29924 ft | 453 kts | 206° |
| 2026-04-25 22:34 | 9.71959 | -75.74486 | 30317 ft | 456 kts | 206° |
| 2026-04-25 22:34 | 9.69105 | -75.75878 | 30731 ft | 458 kts | 206° |
| 2026-04-25 22:34 | 9.66230 | -75.77281 | 31185 ft | 459 kts | 206° |
| 2026-04-25 22:35 | 9.63317 | -75.78702 | 31742 ft | 457 kts | 206° |
| 2026-04-25 22:35 | 9.60450 | -75.80100 | 32325 ft | 455 kts | 206° |
| 2026-04-25 22:35 | 9.57605 | -75.81488 | 32908 ft | 453 kts | 205° |
| 2026-04-25 22:35 | 9.54791 | -75.82860 | 33475 ft | 451 kts | 205° |
| 2026-04-25 22:36 | 9.51957 | -75.84241 | 34012 ft | 448 kts | 205° |
| 2026-04-25 22:36 | 9.49113 | -75.85627 | 34493 ft | 446 kts | 205° |
| 2026-04-25 22:36 | 9.46359 | -75.86968 | 34967 ft | 444 kts | 205° |
| 2026-04-25 22:36 | 9.43588 | -75.88317 | 35418 ft | 443 kts | 205° |
| 2026-04-25 22:37 | 9.40811 | -75.89669 | 35866 ft | 441 kts | 205° |
| 2026-04-25 22:37 | 9.38050 | -75.91013 | 36336 ft | 439 kts | 205° |
| 2026-04-25 22:37 | 9.35302 | -75.92350 | 36789 ft | 438 kts | 205° |
| 2026-04-25 22:37 | 9.32563 | -75.93683 | 37225 ft | 436 kts | 205° |
| 2026-04-25 22:38 | 9.29867 | -75.94994 | 37649 ft | 435 kts | 205° |
| 2026-04-25 22:38 | 9.27102 | -75.96339 | 37856 ft | 434 kts | 205° |
| 2026-04-25 22:38 | 9.24400 | -75.97653 | 37958 ft | 432 kts | 205° |
| 2026-04-25 22:38 | 9.21681 | -75.98975 | 38042 ft | 432 kts | 205° |
| 2026-04-25 22:39 | 9.16264 | -76.01608 | 38042 ft | 432 kts | 205° |
| 2026-04-25 22:39 | 9.10884 | -76.04222 | 38044 ft | 432 kts | 205° |
| 2026-04-25 22:40 | 9.05461 | -76.06857 | 38038 ft | 432 kts | 205° |
| 2026-04-25 22:40 | 9.00042 | -76.09488 | 38036 ft | 432 kts | 205° |
| 2026-04-25 22:41 | 8.94629 | -76.12115 | 38036 ft | 432 kts | 205° |
| 2026-04-25 22:41 | 8.89239 | -76.14731 | 38038 ft | 432 kts | 205° |
| 2026-04-25 22:42 | 8.83807 | -76.17365 | 38046 ft | 432 kts | 205° |
| 2026-04-25 22:42 | 8.78382 | -76.19996 | 38048 ft | 432 kts | 205° |
| 2026-04-25 22:43 | 8.72957 | -76.22625 | 38044 ft | 432 kts | 205° |
| 2026-04-25 22:43 | 8.67537 | -76.25251 | 38044 ft | 432 kts | 205° |
| 2026-04-25 22:44 | 8.62121 | -76.27875 | 38042 ft | 432 kts | 205° |
| 2026-04-25 22:44 | 8.56708 | -76.30497 | 38041 ft | 432 kts | 205° |
| 2026-04-25 22:45 | 8.51292 | -76.33119 | 38045 ft | 432 kts | 205° |
| 2026-04-25 22:45 | 8.45864 | -76.35746 | 38046 ft | 432 kts | 205° |
| 2026-04-25 22:46 | 8.40435 | -76.38372 | 38046 ft | 432 kts | 205° |
| 2026-04-25 22:46 | 8.35020 | -76.40992 | 38044 ft | 432 kts | 204° |
| 2026-04-25 22:47 | 8.29547 | -76.43638 | 38049 ft | 433 kts | 204° |
| 2026-04-25 22:47 | 8.24091 | -76.46193 | 38049 ft | 432 kts | 201° |
| 2026-04-25 22:48 | 8.18366 | -76.47999 | 38053 ft | 432 kts | 193° |
| 2026-04-25 22:48 | 8.12534 | -76.49473 | 38051 ft | 432 kts | 194° |
| 2026-04-25 22:49 | 8.06666 | -76.50975 | 38042 ft | 432 kts | 194° |
| 2026-04-25 22:49 | 8.00830 | -76.52468 | 38028 ft | 433 kts | 193° |
| 2026-04-25 22:50 | 7.95011 | -76.53954 | 38014 ft | 433 kts | 193° |
| 2026-04-25 22:50 | 7.89109 | -76.55461 | 38001 ft | 433 kts | 193° |
| 2026-04-25 22:51 | 7.83235 | -76.56960 | 37988 ft | 433 kts | 193° |
| 2026-04-25 22:51 | 7.77389 | -76.58451 | 37990 ft | 433 kts | 193° |
| 2026-04-25 22:52 | 7.71536 | -76.59944 | 37993 ft | 434 kts | 193° |
| 2026-04-25 22:52 | 7.66673 | -76.61184 | 38001 ft | 434 kts | 193° |
| 2026-04-25 22:53 | 7.59863 | -76.62920 | 38016 ft | 434 kts | 193° |
| 2026-04-25 22:53 | 7.54003 | -76.64414 | 38024 ft | 434 kts | 193° |
| 2026-04-25 22:54 | 7.48141 | -76.65907 | 38041 ft | 435 kts | 193° |
| 2026-04-25 22:54 | 7.42314 | -76.67392 | 38040 ft | 435 kts | 193° |
| 2026-04-25 22:55 | 7.36455 | -76.68883 | 38037 ft | 435 kts | 193° |
| 2026-04-25 22:55 | 7.30582 | -76.70378 | 38033 ft | 435 kts | 193° |
| 2026-04-25 22:56 | 7.24713 | -76.71872 | 38032 ft | 435 kts | 193° |
| 2026-04-25 22:56 | 7.18834 | -76.73368 | 38034 ft | 436 kts | 193° |
| 2026-04-25 22:57 | 7.12950 | -76.74865 | 38032 ft | 436 kts | 193° |
| 2026-04-25 22:57 | 7.07061 | -76.76362 | 38029 ft | 436 kts | 193° |
| 2026-04-25 22:58 | 7.01213 | -76.77849 | 38027 ft | 436 kts | 193° |
| 2026-04-25 22:58 | 6.95325 | -76.79346 | 38026 ft | 437 kts | 193° |
| 2026-04-25 22:59 | 6.89434 | -76.80843 | 38021 ft | 437 kts | 193° |
| 2026-04-25 22:59 | 6.83545 | -76.82339 | 38019 ft | 437 kts | 193° |
| 2026-04-25 23:00 | 6.77652 | -76.83836 | 38020 ft | 437 kts | 193° |
| 2026-04-25 23:00 | 6.71739 | -76.85337 | 38017 ft | 438 kts | 193° |
| 2026-04-25 23:01 | 6.65833 | -76.86837 | 38011 ft | 438 kts | 193° |
| 2026-04-25 23:01 | 6.59915 | -76.88339 | 38013 ft | 438 kts | 193° |
| 2026-04-25 23:02 | 6.54001 | -76.89840 | 38011 ft | 439 kts | 193° |
| 2026-04-25 23:02 | 6.48078 | -76.91342 | 38010 ft | 439 kts | 193° |
| 2026-04-25 23:03 | 6.42183 | -76.92837 | 38013 ft | 439 kts | 193° |
| 2026-04-25 23:03 | 6.36245 | -76.94343 | 38013 ft | 441 kts | 193° |
| 2026-04-25 23:04 | 6.31303 | -76.95596 | 38012 ft | 441 kts | 193° |
| 2026-04-25 23:04 | 6.24346 | -76.97359 | 38010 ft | 442 kts | 193° |
| 2026-04-25 23:05 | 6.18376 | -76.98871 | 38012 ft | 443 kts | 193° |
| 2026-04-25 23:05 | 6.12443 | -77.00399 | 38017 ft | 444 kts | 195° |
| 2026-04-25 23:06 | 6.06588 | -77.02427 | 38020 ft | 446 kts | 198° |
| 2026-04-25 23:06 | 6.00730 | -77.04502 | 38025 ft | 446 kts | 198° |
| 2026-04-25 23:07 | 5.94884 | -77.06569 | 38016 ft | 444 kts | 198° |
| 2026-04-25 23:07 | 5.89092 | -77.08617 | 38017 ft | 444 kts | 198° |
| 2026-04-25 23:08 | 5.83229 | -77.10690 | 38022 ft | 444 kts | 198° |
| 2026-04-25 23:08 | 5.77405 | -77.12748 | 38020 ft | 444 kts | 197° |
| 2026-04-25 23:09 | 5.71566 | -77.14812 | 38019 ft | 444 kts | 198° |
| 2026-04-25 23:09 | 5.65725 | -77.16876 | 38021 ft | 445 kts | 198° |
| 2026-04-25 23:10 | 5.59893 | -77.18936 | 38024 ft | 445 kts | 198° |
| 2026-04-25 23:10 | 5.54095 | -77.20984 | 38023 ft | 445 kts | 198° |
| 2026-04-25 23:11 | 5.48249 | -77.23048 | 38023 ft | 445 kts | 198° |
| 2026-04-25 23:11 | 5.42409 | -77.25109 | 38025 ft | 445 kts | 198° |
| 2026-04-25 23:12 | 5.36558 | -77.27175 | 38034 ft | 446 kts | 198° |
| 2026-04-25 23:12 | 5.30700 | -77.29242 | 38034 ft | 446 kts | 198° |
| 2026-04-25 23:13 | 5.24844 | -77.31308 | 38034 ft | 446 kts | 198° |
| 2026-04-25 23:13 | 5.19001 | -77.33369 | 38038 ft | 446 kts | 198° |
| 2026-04-25 23:14 | 5.14123 | -77.35089 | 38038 ft | 446 kts | 198° |
| 2026-04-25 23:14 | 5.08267 | -77.37154 | 38038 ft | 446 kts | 198° |
| 2026-04-25 23:15 | 5.02415 | -77.39217 | 38043 ft | 446 kts | 198° |
| 2026-04-25 23:15 | 4.95608 | -77.41617 | 38047 ft | 446 kts | 198° |
| 2026-04-25 23:16 | 4.90702 | -77.43345 | 38047 ft | 446 kts | 198° |
| 2026-04-25 23:16 | 4.84885 | -77.45395 | 38048 ft | 446 kts | 198° |
| 2026-04-25 23:17 | 4.78995 | -77.47470 | 38057 ft | 446 kts | 198° |
| 2026-04-25 23:17 | 4.73183 | -77.49516 | 38057 ft | 446 kts | 198° |
| 2026-04-25 23:18 | 4.67275 | -77.51597 | 38059 ft | 446 kts | 198° |
| 2026-04-25 23:18 | 4.61420 | -77.53658 | 38060 ft | 446 kts | 198° |
| 2026-04-25 23:19 | 4.55557 | -77.55721 | 38060 ft | 446 kts | 198° |
| 2026-04-25 23:19 | 4.49744 | -77.57767 | 38061 ft | 446 kts | 198° |
| 2026-04-25 23:20 | 4.43867 | -77.59835 | 38061 ft | 447 kts | 198° |
| 2026-04-25 23:20 | 4.38007 | -77.61896 | 38060 ft | 447 kts | 198° |
| 2026-04-25 23:21 | 4.32186 | -77.63944 | 38061 ft | 447 kts | 198° |
| 2026-04-25 23:21 | 4.26306 | -77.66012 | 38063 ft | 447 kts | 198° |
| 2026-04-25 23:22 | 4.20558 | -77.68033 | 38061 ft | 448 kts | 198° |
| 2026-04-25 23:23 | 4.11727 | -77.71138 | 38067 ft | 448 kts | 198° |
| 2026-04-25 23:23 | 4.05850 | -77.73204 | 38070 ft | 448 kts | 198° |
| 2026-04-25 23:24 | 3.99954 | -77.75276 | 38067 ft | 449 kts | 198° |
| 2026-04-25 23:24 | 3.94059 | -77.77348 | 38069 ft | 449 kts | 198° |
| 2026-04-25 23:25 | 3.88217 | -77.79401 | 38067 ft | 449 kts | 198° |
| 2026-04-25 23:25 | 3.82321 | -77.81472 | 38072 ft | 449 kts | 198° |
| 2026-04-25 23:26 | 3.76438 | -77.83539 | 38073 ft | 449 kts | 198° |
| 2026-04-25 23:26 | 3.70542 | -77.85606 | 38069 ft | 449 kts | 199° |
| 2026-04-25 23:27 | 3.64689 | -77.87661 | 38074 ft | 449 kts | 199° |
| 2026-04-25 23:27 | 3.58793 | -77.89732 | 38073 ft | 449 kts | 199° |
| 2026-04-25 23:28 | 3.52854 | -77.91818 | 38066 ft | 449 kts | 199° |
| 2026-04-25 23:28 | 3.46969 | -77.93884 | 38067 ft | 449 kts | 199° |
| 2026-04-25 23:29 | 3.41085 | -77.95949 | 38068 ft | 449 kts | 199° |
| 2026-04-25 23:29 | 3.35227 | -77.98005 | 38069 ft | 449 kts | 199° |
| 2026-04-25 23:30 | 3.29334 | -78.00073 | 38065 ft | 449 kts | 199° |
| 2026-04-25 23:30 | 3.23439 | -78.02141 | 38066 ft | 449 kts | 199° |
| 2026-04-25 23:31 | 3.17550 | -78.04208 | 38063 ft | 449 kts | 199° |
| 2026-04-25 23:31 | 3.11655 | -78.06276 | 38064 ft | 449 kts | 199° |
| 2026-04-25 23:32 | 3.05804 | -78.08328 | 38065 ft | 449 kts | 199° |
| 2026-04-25 23:32 | 2.99919 | -78.10392 | 38064 ft | 449 kts | 199° |
| 2026-04-25 23:33 | 2.94027 | -78.12459 | 38066 ft | 449 kts | 199° |
| 2026-04-25 23:33 | 2.88133 | -78.14525 | 38071 ft | 449 kts | 199° |
| 2026-04-25 23:34 | 2.82226 | -78.16596 | 38066 ft | 449 kts | 199° |
| 2026-04-25 23:34 | 2.76384 | -78.18644 | 38072 ft | 449 kts | 199° |
| 2026-04-25 23:35 | 2.70479 | -78.20714 | 38071 ft | 449 kts | 199° |
| 2026-04-25 23:35 | 2.64572 | -78.22784 | 38077 ft | 449 kts | 199° |
| 2026-04-25 23:36 | 2.58672 | -78.24851 | 38078 ft | 449 kts | 199° |
| 2026-04-25 23:36 | 2.52825 | -78.26900 | 38079 ft | 449 kts | 199° |
| 2026-04-25 23:37 | 2.46886 | -78.28981 | 38080 ft | 448 kts | 199° |
| 2026-04-25 23:37 | 2.41003 | -78.31042 | 38074 ft | 448 kts | 199° |
| 2026-04-25 23:38 | 2.35151 | -78.33092 | 38071 ft | 448 kts | 199° |
| 2026-04-25 23:38 | 2.29281 | -78.35148 | 38072 ft | 448 kts | 199° |
| 2026-04-25 23:39 | 2.23382 | -78.37214 | 38068 ft | 448 kts | 199° |
| 2026-04-25 23:39 | 2.17490 | -78.39278 | 38071 ft | 449 kts | 199° |
| 2026-04-25 23:40 | 2.11598 | -78.41342 | 38076 ft | 449 kts | 199° |
| 2026-04-25 23:40 | 2.05683 | -78.43413 | 38076 ft | 450 kts | 199° |
| 2026-04-25 23:41 | 1.99814 | -78.45467 | 38075 ft | 450 kts | 199° |
| 2026-04-25 23:41 | 1.93862 | -78.47551 | 38064 ft | 451 kts | 199° |
| 2026-04-25 23:42 | 1.87934 | -78.49626 | 38057 ft | 452 kts | 199° |
| 2026-04-25 23:42 | 1.82028 | -78.51693 | 38049 ft | 453 kts | 199° |
| 2026-04-25 23:43 | 1.76066 | -78.53780 | 38047 ft | 455 kts | 199° |
| 2026-04-25 23:43 | 1.70081 | -78.55875 | 38053 ft | 456 kts | 199° |
| 2026-04-25 23:44 | 1.64088 | -78.57972 | 38065 ft | 458 kts | 199° |
| 2026-04-25 23:44 | 1.58065 | -78.60079 | 38088 ft | 459 kts | 199° |
| 2026-04-25 23:45 | 1.52328 | -78.62087 | 38114 ft | 460 kts | 199° |
| 2026-04-25 23:45 | 1.46321 | -78.64188 | 38140 ft | 461 kts | 199° |
| 2026-04-25 23:46 | 1.40274 | -78.66304 | 38134 ft | 460 kts | 199° |
| 2026-04-25 23:46 | 1.34248 | -78.68413 | 38141 ft | 459 kts | 199° |
| 2026-04-25 23:47 | 1.28204 | -78.70453 | 38150 ft | 459 kts | 198° |
| 2026-04-25 23:47 | 1.22114 | -78.72409 | 38154 ft | 459 kts | 198° |
| 2026-04-25 23:48 | 1.16080 | -78.74363 | 38162 ft | 458 kts | 198° |
| 2026-04-25 23:48 | 1.10031 | -78.76332 | 38158 ft | 457 kts | 198° |
| 2026-04-25 23:49 | 1.03983 | -78.78302 | 38164 ft | 457 kts | 198° |
| 2026-04-25 23:49 | 0.97939 | -78.80272 | 38162 ft | 456 kts | 198° |
| 2026-04-25 23:50 | 0.91944 | -78.82225 | 38163 ft | 456 kts | 198° |
| 2026-04-25 23:50 | 0.85917 | -78.84189 | 38174 ft | 456 kts | 198° |
| 2026-04-25 23:51 | 0.79883 | -78.86154 | 38176 ft | 456 kts | 198° |
| 2026-04-25 23:51 | 0.73853 | -78.88118 | 38180 ft | 456 kts | 198° |
| 2026-04-25 23:52 | 0.67806 | -78.90088 | 38189 ft | 457 kts | 198° |
| 2026-04-25 23:52 | 0.61796 | -78.92046 | 38193 ft | 457 kts | 198° |
| 2026-04-25 23:53 | 0.55750 | -78.94015 | 38202 ft | 458 kts | 198° |
| 2026-04-25 23:53 | 0.49669 | -78.95996 | 38207 ft | 459 kts | 198° |
| 2026-04-25 23:54 | 0.43617 | -78.97967 | 38209 ft | 459 kts | 198° |
| 2026-04-25 23:54 | 0.37527 | -78.99950 | 38217 ft | 459 kts | 198° |
| 2026-04-25 23:55 | 0.31466 | -79.01925 | 38214 ft | 458 kts | 198° |
| 2026-04-25 23:55 | 0.25440 | -79.03888 | 38217 ft | 458 kts | 198° |
| 2026-04-25 23:56 | 0.19390 | -79.05858 | 38218 ft | 458 kts | 198° |
| 2026-04-25 23:56 | 0.13340 | -79.07829 | 38221 ft | 457 kts | 198° |
| 2026-04-25 23:57 | 0.07282 | -79.09802 | 38223 ft | 457 kts | 197° |
| 2026-04-25 23:57 | 0.01332 | -79.11740 | 38231 ft | 457 kts | 197° |
| 2026-04-25 23:58 | -0.04646 | -79.13688 | 38138 ft | 447 kts | 197° |
| 2026-04-25 23:58 | -0.07568 | -79.14645 | 37912 ft | 438 kts | 198° |
| 2026-04-25 23:58 | -0.10434 | -79.15638 | 37385 ft | 435 kts | 199° |
| 2026-04-25 23:58 | -0.13220 | -79.16629 | 36877 ft | 431 kts | 199° |
| 2026-04-25 23:59 | -0.16046 | -79.17638 | 36380 ft | 427 kts | 199° |
| 2026-04-25 23:59 | -0.18805 | -79.18617 | 35914 ft | 423 kts | 198° |
| 2026-04-25 23:59 | -0.21571 | -79.19594 | 35426 ft | 420 kts | 198° |
| 2026-04-25 23:59 | -0.24310 | -79.20558 | 34980 ft | 416 kts | 198° |
| 2026-04-26 00:00 | -0.27034 | -79.21516 | 34509 ft | 413 kts | 198° |
| 2026-04-26 00:00 | -0.29733 | -79.22463 | 34077 ft | 410 kts | 198° |
| 2026-04-26 00:00 | -0.32414 | -79.23404 | 33570 ft | 407 kts | 197° |
| 2026-04-26 00:00 | -0.35068 | -79.24335 | 33128 ft | 402 kts | 197° |
| 2026-04-26 00:01 | -0.37662 | -79.25246 | 32661 ft | 399 kts | 197° |
| 2026-04-26 00:01 | -0.40275 | -79.26162 | 32211 ft | 395 kts | 197° |
| 2026-04-26 00:01 | -0.42858 | -79.27069 | 31758 ft | 392 kts | 197° |
| 2026-04-26 00:01 | -0.45411 | -79.27966 | 31315 ft | 389 kts | 197° |
| 2026-04-26 00:02 | -0.47965 | -79.28862 | 30857 ft | 387 kts | 197° |
| 2026-04-26 00:02 | -0.50499 | -79.29752 | 30414 ft | 384 kts | 197° |
| 2026-04-26 00:02 | -0.53007 | -79.30632 | 29937 ft | 382 kts | 197° |
| 2026-04-26 00:02 | -0.55509 | -79.31510 | 29448 ft | 379 kts | 197° |
| 2026-04-26 00:03 | -0.57991 | -79.32380 | 28963 ft | 376 kts | 197° |
| 2026-04-26 00:03 | -0.60446 | -79.33241 | 28489 ft | 373 kts | 197° |
| 2026-04-26 00:03 | -0.62880 | -79.34096 | 28026 ft | 370 kts | 197° |
| 2026-04-26 00:03 | -0.65273 | -79.34935 | 27582 ft | 367 kts | 197° |
| 2026-04-26 00:04 | -0.67705 | -79.35789 | 27154 ft | 364 kts | 197° |
| 2026-04-26 00:04 | -0.70055 | -79.36613 | 26729 ft | 362 kts | 197° |
| 2026-04-26 00:04 | -0.72420 | -79.37442 | 26300 ft | 359 kts | 197° |
| 2026-04-26 00:04 | -0.74771 | -79.38266 | 25888 ft | 357 kts | 198° |
| 2026-04-26 00:05 | -0.77101 | -79.39083 | 25479 ft | 354 kts | 198° |
| 2026-04-26 00:05 | -0.79427 | -79.39899 | 25081 ft | 352 kts | 198° |
| 2026-04-26 00:05 | -0.81720 | -79.40703 | 24696 ft | 349 kts | 198° |
| 2026-04-26 00:05 | -0.84001 | -79.41503 | 24310 ft | 347 kts | 198° |
| 2026-04-26 00:06 | -0.86278 | -79.42301 | 23932 ft | 344 kts | 198° |
| 2026-04-26 00:06 | -0.88524 | -79.43088 | 23552 ft | 342 kts | 198° |
| 2026-04-26 00:06 | -0.90770 | -79.43874 | 23113 ft | 340 kts | 198° |
| 2026-04-26 00:06 | -0.92979 | -79.44648 | 22685 ft | 337 kts | 198° |
| 2026-04-26 00:07 | -0.95162 | -79.45413 | 22282 ft | 334 kts | 198° |
| 2026-04-26 00:07 | -0.97371 | -79.46188 | 21859 ft | 332 kts | 198° |
| 2026-04-26 00:07 | -0.99543 | -79.46949 | 21462 ft | 330 kts | 198° |
| 2026-04-26 00:07 | -1.01682 | -79.47698 | 21063 ft | 328 kts | 198° |
| 2026-04-26 00:08 | -1.03826 | -79.48450 | 20667 ft | 325 kts | 198° |
| 2026-04-26 00:08 | -1.05954 | -79.49195 | 20282 ft | 323 kts | 198° |
| 2026-04-26 00:08 | -1.08064 | -79.49935 | 19895 ft | 321 kts | 198° |
| 2026-04-26 00:08 | -1.10163 | -79.50671 | 19524 ft | 319 kts | 198° |
| 2026-04-26 00:09 | -1.12256 | -79.51405 | 19153 ft | 317 kts | 198° |
| 2026-04-26 00:09 | -1.14336 | -79.52134 | 18790 ft | 315 kts | 199° |
| 2026-04-26 00:09 | -1.16372 | -79.52847 | 18436 ft | 313 kts | 199° |
| 2026-04-26 00:09 | -1.18423 | -79.53566 | 18040 ft | 311 kts | 199° |
| 2026-04-26 00:10 | -1.20455 | -79.54278 | 17630 ft | 309 kts | 199° |
| 2026-04-26 00:10 | -1.22486 | -79.54989 | 17227 ft | 307 kts | 199° |
| 2026-04-26 00:10 | -1.24491 | -79.55692 | 16841 ft | 306 kts | 199° |
| 2026-04-26 00:10 | -1.26491 | -79.56394 | 16436 ft | 304 kts | 199° |
| 2026-04-26 00:11 | -1.28471 | -79.57088 | 16053 ft | 302 kts | 199° |
| 2026-04-26 00:11 | -1.30458 | -79.57784 | 15662 ft | 300 kts | 199° |
| 2026-04-26 00:11 | -1.32417 | -79.58471 | 15296 ft | 298 kts | 199° |
| 2026-04-26 00:11 | -1.34369 | -79.59155 | 14928 ft | 296 kts | 199° |
| 2026-04-26 00:12 | -1.36311 | -79.59836 | 14555 ft | 295 kts | 199° |
| 2026-04-26 00:12 | -1.38240 | -79.60512 | 14201 ft | 293 kts | 199° |
| 2026-04-26 00:12 | -1.40160 | -79.61185 | 13839 ft | 291 kts | 199° |
| 2026-04-26 00:12 | -1.42063 | -79.61852 | 13452 ft | 289 kts | 199° |
| 2026-04-26 00:13 | -1.43960 | -79.62518 | 13051 ft | 288 kts | 199° |
| 2026-04-26 00:13 | -1.45847 | -79.63179 | 12651 ft | 286 kts | 199° |
| 2026-04-26 00:13 | -1.47712 | -79.63832 | 12272 ft | 285 kts | 199° |
| 2026-04-26 00:13 | -1.49582 | -79.64488 | 11885 ft | 284 kts | 199° |
| 2026-04-26 00:14 | -1.51418 | -79.65211 | 11508 ft | 282 kts | 206° |
| 2026-04-26 00:14 | -1.53145 | -79.66101 | 11143 ft | 280 kts | 207° |
| 2026-04-26 00:14 | -1.54891 | -79.66919 | 10780 ft | 279 kts | 203° |
| 2026-04-26 00:14 | -1.56722 | -79.67627 | 10406 ft | 278 kts | 199° |
| 2026-04-26 00:15 | -1.58529 | -79.68220 | 10049 ft | 276 kts | 197° |
| 2026-04-26 00:15 | -1.60369 | -79.68769 | 9675 ft | 275 kts | 196° |
| 2026-04-26 00:15 | -1.62204 | -79.69296 | 9290 ft | 274 kts | 196° |
| 2026-04-26 00:15 | -1.64030 | -79.69814 | 8911 ft | 273 kts | 196° |
| 2026-04-26 00:16 | -1.65851 | -79.70332 | 8539 ft | 271 kts | 196° |
| 2026-04-26 00:16 | -1.67662 | -79.70849 | 8172 ft | 270 kts | 196° |
| 2026-04-26 00:16 | -1.69461 | -79.71364 | 7819 ft | 268 kts | 196° |
| 2026-04-26 00:16 | -1.71250 | -79.71877 | 7463 ft | 267 kts | 196° |
| 2026-04-26 00:17 | -1.73010 | -79.72382 | 7112 ft | 266 kts | 196° |
| 2026-04-26 00:17 | -1.74784 | -79.72891 | 6769 ft | 265 kts | 196° |
| 2026-04-26 00:17 | -1.76546 | -79.73397 | 6443 ft | 263 kts | 196° |
| 2026-04-26 00:17 | -1.78309 | -79.73903 | 6101 ft | 262 kts | 196° |
| 2026-04-26 00:18 | -1.80052 | -79.74403 | 5752 ft | 261 kts | 196° |
| 2026-04-26 00:18 | -1.81795 | -79.74903 | 5414 ft | 259 kts | 196° |
| 2026-04-26 00:18 | -1.83529 | -79.75401 | 5082 ft | 258 kts | 196° |
| 2026-04-26 00:18 | -1.85245 | -79.75893 | 4751 ft | 257 kts | 196° |
| 2026-04-26 00:19 | -1.86966 | -79.76387 | 4424 ft | 255 kts | 196° |
| 2026-04-26 00:19 | -1.88662 | -79.76874 | 4025 ft | 255 kts | 196° |
| 2026-04-26 00:19 | -1.90364 | -79.77362 | 3517 ft | 253 kts | 196° |
| 2026-04-26 00:19 | -1.92055 | -79.77847 | 2969 ft | 253 kts | 196° |
| 2026-04-26 00:20 | -1.93730 | -79.78327 | 2422 ft | 253 kts | 196° |
| 2026-04-26 00:20 | -1.95369 | -79.78796 | 2262 ft | 235 kts | 196° |
| 2026-04-26 00:20 | -1.96869 | -79.79226 | 2148 ft | 214 kts | 197° |
| 2026-04-26 00:20 | -1.98245 | -79.79620 | 2090 ft | 190 kts | 197° |
| 2026-04-26 00:21 | -1.99444 | -79.79965 | 1984 ft | 180 kts | 197° |
| 2026-04-26 00:21 | -2.00655 | -79.80314 | 1941 ft | 180 kts | 197° |
| 2026-04-26 00:21 | -2.01860 | -79.80663 | 1936 ft | 179 kts | 197° |
| 2026-04-26 00:21 | -2.03033 | -79.81093 | 1944 ft | 178 kts | 204° |
| 2026-04-26 00:22 | -2.04147 | -79.81650 | 1939 ft | 180 kts | 209° |
| 2026-04-26 00:22 | -2.05236 | -79.82273 | 1936 ft | 180 kts | 211° |
| 2026-04-26 00:22 | -2.06316 | -79.82900 | 1896 ft | 181 kts | 210° |
| 2026-04-26 00:22 | -2.07380 | -79.83518 | 1671 ft | 179 kts | 210° |
| 2026-04-26 00:23 | -2.08452 | -79.84139 | 1427 ft | 176 kts | 210° |
| 2026-04-26 00:23 | -2.09524 | -79.84762 | 1202 ft | 178 kts | 211° |
| 2026-04-26 00:23 | -2.10597 | -79.85384 | 978 ft | 177 kts | 210° |
| 2026-04-26 00:23 | -2.11643 | -79.85990 | 762 ft | 170 kts | 210° |
| 2026-04-26 00:24 | -2.12644 | -79.86578 | 529 ft | 165 kts | 210° |
| 2026-04-26 00:24 | -2.13627 | -79.87153 | 304 ft | 161 kts | 209° |
| 2026-04-26 00:24 | -2.14581 | -79.87687 | 149 ft | 152 kts | 210° |
| 2026-04-26 00:24 | -2.15470 | -79.88205 | 26 ft | 141 kts | 210° |
| 2026-04-26 00:25 | -2.16060 | -79.88544 | 27 ft | 62 kts | 210° |
| 2026-04-26 00:25 | -2.16196 | -79.88623 | 29 ft | 16 kts | 209° |
| 2026-04-26 00:25 | -2.16317 | -79.88698 | 28 ft | 25 kts | 225° |
| 2026-04-26 00:25 | -2.16337 | -79.88745 | 28 ft | 0 kts | 275° |
| 2026-04-26 00:26 | -2.16337 | -79.88747 | 27 ft | 3 kts | 275° |
| 2026-04-26 00:26 | -2.16328 | -79.88797 | 28 ft | 2 kts | 311° |
| 2026-04-26 00:26 | -2.16274 | -79.88780 | 28 ft | 16 kts | 38° |
| 2026-04-26 00:26 | -2.16149 | -79.88712 | 29 ft | 25 kts | 28° |
| 2026-04-26 00:27 | -2.15976 | -79.88607 | 28 ft | 33 kts | 34° |
| 2026-04-26 00:27 | -2.15756 | -79.88485 | 28 ft | 39 kts | 27° |
| 2026-04-26 00:27 | -2.15507 | -79.88342 | 28 ft | 38 kts | 30° |
| 2026-04-26 00:27 | -2.15291 | -79.88226 | 28 ft | 29 kts | 14° |
| 2026-04-26 00:28 | -2.15220 | -79.88250 | 28 ft | 6 kts | 322° |
| 2026-04-26 00:28 | -2.15216 | -79.88275 | 28 ft | 9 kts | 269° |
| 2026-04-26 00:28 | -2.15178 | -79.88368 | 28 ft | 18 kts | 310° |
| 2026-04-26 00:28 | -2.15079 | -79.88371 | 28 ft | 16 kts | 350° |
| 2026-04-26 00:29 | -2.15026 | -79.88407 | 28 ft | 2 kts | 298° |
| 2026-04-26 00:29 | -2.15022 | -79.88414 | 28 ft | 0 kts | 302° |